sensor_id;sensor_type;location;lat;lon;timestamp;P1;durP1;ratioP1;P2;durP2;ratioP2
14231;SDS011;7200;52.194;9.900;2022-08-19T00:00:28;13.30;;;12.10;;
14231;SDS011;7200;52.194;9.900;2022-08-19T00:02:54;12.63;;;11.33;;
14231;SDS011;7200;52.194;9.900;2022-08-19T00:05:20;13.93;;;12.80;;
14231;SDS011;7200;52.194;9.900;2022-08-19T00:07:47;11.90;;;10.93;;
14231;SDS011;7200;52.194;9.900;2022-08-19T00:10:14;13.13;;;12.03;;
14231;SDS011;7200;52.194;9.900;2022-08-19T00:12:40;13.50;;;12.23;;
14231;SDS011;7200;52.194;9.900;2022-08-19T00:15:08;13.43;;;12.27;;
14231;SDS011;7200;52.194;9.900;2022-08-19T00:17:39;12.97;;;11.87;;
14231;SDS011;7200;52.194;9.900;2022-08-19T00:20:06;13.70;;;12.47;;
14231;SDS011;7200;52.194;9.900;2022-08-19T00:22:32;13.13;;;11.80;;
14231;SDS011;7200;52.194;9.900;2022-08-19T00:24:58;14.50;;;11.80;;
14231;SDS011;7200;52.194;9.900;2022-08-19T00:27:23;12.80;;;11.60;;
14231;SDS011;7200;52.194;9.900;2022-08-19T00:29:49;12.17;;;11.17;;
14231;SDS011;7200;52.194;9.900;2022-08-19T00:32:15;12.57;;;11.47;;
14231;SDS011;7200;52.194;9.900;2022-08-19T00:34:41;12.90;;;11.80;;
14231;SDS011;7200;52.194;9.900;2022-08-19T00:37:06;13.00;;;11.90;;
14231;SDS011;7200;52.194;9.900;2022-08-19T00:39:31;13.50;;;12.30;;
14231;SDS011;7200;52.194;9.900;2022-08-19T00:41:57;13.97;;;12.37;;
14231;SDS011;7200;52.194;9.900;2022-08-19T00:44:26;11.37;;;10.40;;
14231;SDS011;7200;52.194;9.900;2022-08-19T00:46:53;12.67;;;11.50;;
14231;SDS011;7200;52.194;9.900;2022-08-19T00:49:33;12.90;;;11.40;;
14231;SDS011;7200;52.194;9.900;2022-08-19T00:52:14;12.13;;;11.23;;
14231;SDS011;7200;52.194;9.900;2022-08-19T00:54:41;12.43;;;11.43;;
14231;SDS011;7200;52.194;9.900;2022-08-19T00:57:09;12.93;;;11.80;;
14231;SDS011;7200;52.194;9.900;2022-08-19T00:59:41;12.80;;;11.60;;
14231;SDS011;7200;52.194;9.900;2022-08-19T01:02:10;12.77;;;11.57;;
14231;SDS011;7200;52.194;9.900;2022-08-19T01:04:36;12.37;;;11.23;;
14231;SDS011;7200;52.194;9.900;2022-08-19T01:07:02;13.70;;;12.30;;
14231;SDS011;7200;52.194;9.900;2022-08-19T01:09:27;14.43;;;11.20;;
14231;SDS011;7200;52.194;9.900;2022-08-19T01:11:54;13.17;;;11.87;;
14231;SDS011;7200;52.194;9.900;2022-08-19T01:14:20;13.20;;;11.97;;
14231;SDS011;7200;52.194;9.900;2022-08-19T01:16:46;13.33;;;11.87;;
14231;SDS011;7200;52.194;9.900;2022-08-19T01:19:28;13.30;;;12.10;;
14231;SDS011;7200;52.194;9.900;2022-08-19T01:22:02;13.23;;;12.03;;
14231;SDS011;7200;52.194;9.900;2022-08-19T01:24:34;17.13;;;13.43;;
14231;SDS011;7200;52.194;9.900;2022-08-19T01:26:59;13.43;;;12.33;;
14231;SDS011;7200;52.194;9.900;2022-08-19T01:29:28;13.57;;;12.37;;
14231;SDS011;7200;52.194;9.900;2022-08-19T01:31:54;13.90;;;12.80;;
14231;SDS011;7200;52.194;9.900;2022-08-19T01:34:19;13.33;;;12.13;;
14231;SDS011;7200;52.194;9.900;2022-08-19T01:36:46;12.67;;;11.67;;
14231;SDS011;7200;52.194;9.900;2022-08-19T01:39:16;14.20;;;12.67;;
14231;SDS011;7200;52.194;9.900;2022-08-19T01:41:45;13.23;;;12.13;;
14231;SDS011;7200;52.194;9.900;2022-08-19T01:44:11;14.10;;;12.87;;
14231;SDS011;7200;52.194;9.900;2022-08-19T01:46:36;13.47;;;11.90;;
14231;SDS011;7200;52.194;9.900;2022-08-19T01:49:03;13.33;;;12.23;;
14231;SDS011;7200;52.194;9.900;2022-08-19T01:51:29;14.40;;;13.00;;
14231;SDS011;7200;52.194;9.900;2022-08-19T01:53:55;14.43;;;13.03;;
14231;SDS011;7200;52.194;9.900;2022-08-19T01:56:22;13.70;;;12.40;;
14231;SDS011;7200;52.194;9.900;2022-08-19T01:58:55;13.63;;;12.43;;
14231;SDS011;7200;52.194;9.900;2022-08-19T02:01:25;14.70;;;13.30;;
14231;SDS011;7200;52.194;9.900;2022-08-19T02:03:50;13.87;;;12.67;;
14231;SDS011;7200;52.194;9.900;2022-08-19T02:06:18;15.23;;;13.90;;
14231;SDS011;7200;52.194;9.900;2022-08-19T02:08:44;13.70;;;12.43;;
14231;SDS011;7200;52.194;9.900;2022-08-19T02:11:17;13.43;;;12.30;;
14231;SDS011;7200;52.194;9.900;2022-08-19T02:13:44;15.03;;;13.00;;
14231;SDS011;7200;52.194;9.900;2022-08-19T02:16:09;14.60;;;13.23;;
14231;SDS011;7200;52.194;9.900;2022-08-19T02:18:35;16.23;;;14.33;;
14231;SDS011;7200;52.194;9.900;2022-08-19T02:21:00;13.97;;;12.73;;
14231;SDS011;7200;52.194;9.900;2022-08-19T02:23:25;15.13;;;13.53;;
14231;SDS011;7200;52.194;9.900;2022-08-19T02:25:52;14.93;;;13.53;;
14231;SDS011;7200;52.194;9.900;2022-08-19T02:28:17;14.07;;;12.87;;
14231;SDS011;7200;52.194;9.900;2022-08-19T02:30:43;15.87;;;14.37;;
14231;SDS011;7200;52.194;9.900;2022-08-19T02:33:08;15.30;;;13.80;;
14231;SDS011;7200;52.194;9.900;2022-08-19T02:35:33;15.23;;;13.50;;
14231;SDS011;7200;52.194;9.900;2022-08-19T02:37:59;15.40;;;13.80;;
14231;SDS011;7200;52.194;9.900;2022-08-19T02:40:49;15.37;;;13.87;;
14231;SDS011;7200;52.194;9.900;2022-08-19T02:43:17;17.73;;;13.57;;
14231;SDS011;7200;52.194;9.900;2022-08-19T02:45:42;17.83;;;14.23;;
14231;SDS011;7200;52.194;9.900;2022-08-19T02:48:08;15.23;;;13.33;;
14231;SDS011;7200;52.194;9.900;2022-08-19T02:50:36;14.47;;;13.17;;
14231;SDS011;7200;52.194;9.900;2022-08-19T02:53:02;16.17;;;14.53;;
14231;SDS011;7200;52.194;9.900;2022-08-19T02:55:28;16.23;;;14.83;;
14231;SDS011;7200;52.194;9.900;2022-08-19T02:57:53;16.77;;;15.17;;
14231;SDS011;7200;52.194;9.900;2022-08-19T03:00:19;15.83;;;14.20;;
14231;SDS011;7200;52.194;9.900;2022-08-19T03:02:44;14.93;;;13.73;;
14231;SDS011;7200;52.194;9.900;2022-08-19T03:05:10;17.07;;;15.47;;
14231;SDS011;7200;52.194;9.900;2022-08-19T03:07:35;16.03;;;14.53;;
14231;SDS011;7200;52.194;9.900;2022-08-19T03:10:01;15.10;;;13.80;;
14231;SDS011;7200;52.194;9.900;2022-08-19T03:12:27;16.77;;;15.17;;
14231;SDS011;7200;52.194;9.900;2022-08-19T03:14:53;16.13;;;14.63;;
14231;SDS011;7200;52.194;9.900;2022-08-19T03:17:18;16.53;;;15.03;;
14231;SDS011;7200;52.194;9.900;2022-08-19T03:19:44;16.57;;;14.87;;
14231;SDS011;7200;52.194;9.900;2022-08-19T03:22:10;15.73;;;14.33;;
14231;SDS011;7200;52.194;9.900;2022-08-19T03:24:35;16.10;;;14.20;;
14231;SDS011;7200;52.194;9.900;2022-08-19T03:27:01;16.30;;;14.63;;
14231;SDS011;7200;52.194;9.900;2022-08-19T03:29:29;16.73;;;14.97;;
14231;SDS011;7200;52.194;9.900;2022-08-19T03:31:57;16.50;;;14.97;;
14231;SDS011;7200;52.194;9.900;2022-08-19T03:34:28;16.40;;;14.90;;
14231;SDS011;7200;52.194;9.900;2022-08-19T03:36:57;16.40;;;14.80;;
14231;SDS011;7200;52.194;9.900;2022-08-19T03:39:25;16.03;;;14.47;;
14231;SDS011;7200;52.194;9.900;2022-08-19T03:41:52;16.70;;;15.00;;
14231;SDS011;7200;52.194;9.900;2022-08-19T03:44:21;15.83;;;14.30;;
14231;SDS011;7200;52.194;9.900;2022-08-19T03:46:48;18.70;;;15.57;;
14231;SDS011;7200;52.194;9.900;2022-08-19T03:49:15;17.83;;;15.90;;
14231;SDS011;7200;52.194;9.900;2022-08-19T03:51:41;16.97;;;15.27;;
14231;SDS011;7200;52.194;9.900;2022-08-19T03:54:10;16.33;;;14.77;;
14231;SDS011;7200;52.194;9.900;2022-08-19T03:56:37;17.50;;;15.70;;
14231;SDS011;7200;52.194;9.900;2022-08-19T03:59:04;17.67;;;16.10;;
14231;SDS011;7200;52.194;9.900;2022-08-19T04:01:31;17.17;;;15.33;;
14231;SDS011;7200;52.194;9.900;2022-08-19T04:03:57;22.93;;;16.93;;
14231;SDS011;7200;52.194;9.900;2022-08-19T04:06:28;17.23;;;14.13;;
14231;SDS011;7200;52.194;9.900;2022-08-19T04:08:56;16.87;;;15.23;;
14231;SDS011;7200;52.194;9.900;2022-08-19T04:11:27;17.17;;;15.33;;
14231;SDS011;7200;52.194;9.900;2022-08-19T04:13:55;16.67;;;15.27;;
14231;SDS011;7200;52.194;9.900;2022-08-19T04:16:21;17.87;;;16.07;;
14231;SDS011;7200;52.194;9.900;2022-08-19T04:18:48;17.53;;;15.93;;
14231;SDS011;7200;52.194;9.900;2022-08-19T04:21:18;17.97;;;16.37;;
14231;SDS011;7200;52.194;9.900;2022-08-19T04:23:46;17.20;;;15.50;;
14231;SDS011;7200;52.194;9.900;2022-08-19T04:26:12;17.23;;;15.77;;
14231;SDS011;7200;52.194;9.900;2022-08-19T04:28:48;21.80;;;15.27;;
14231;SDS011;7200;52.194;9.900;2022-08-19T04:31:16;17.03;;;15.47;;
14231;SDS011;7200;52.194;9.900;2022-08-19T04:33:44;18.37;;;16.63;;
14231;SDS011;7200;52.194;9.900;2022-08-19T04:36:16;20.23;;;15.70;;
14231;SDS011;7200;52.194;9.900;2022-08-19T04:38:45;18.87;;;16.20;;
14231;SDS011;7200;52.194;9.900;2022-08-19T04:41:11;16.53;;;15.03;;
14231;SDS011;7200;52.194;9.900;2022-08-19T04:43:55;16.10;;;14.43;;
14231;SDS011;7200;52.194;9.900;2022-08-19T04:46:20;17.43;;;15.87;;
14231;SDS011;7200;52.194;9.900;2022-08-19T04:48:46;18.20;;;16.37;;
14231;SDS011;7200;52.194;9.900;2022-08-19T04:51:11;16.27;;;14.77;;
14231;SDS011;7200;52.194;9.900;2022-08-19T04:53:38;21.20;;;15.57;;
14231;SDS011;7200;52.194;9.900;2022-08-19T04:56:12;16.13;;;14.53;;
14231;SDS011;7200;52.194;9.900;2022-08-19T04:58:41;16.27;;;14.53;;
14231;SDS011;7200;52.194;9.900;2022-08-19T05:01:08;17.63;;;15.00;;
14231;SDS011;7200;52.194;9.900;2022-08-19T05:03:36;17.20;;;14.47;;
14231;SDS011;7200;52.194;9.900;2022-08-19T05:06:08;16.63;;;14.97;;
14231;SDS011;7200;52.194;9.900;2022-08-19T05:08:37;16.10;;;14.53;;
14231;SDS011;7200;52.194;9.900;2022-08-19T05:11:17;14.37;;;13.03;;
14231;SDS011;7200;52.194;9.900;2022-08-19T05:14:04;15.60;;;14.00;;
14231;SDS011;7200;52.194;9.900;2022-08-19T05:16:31;16.43;;;14.77;;
14231;SDS011;7200;52.194;9.900;2022-08-19T05:18:56;15.23;;;13.93;;
14231;SDS011;7200;52.194;9.900;2022-08-19T05:21:41;15.20;;;13.80;;
14231;SDS011;7200;52.194;9.900;2022-08-19T05:24:26;15.00;;;13.50;;
14231;SDS011;7200;52.194;9.900;2022-08-19T05:26:52;14.10;;;12.70;;
14231;SDS011;7200;52.194;9.900;2022-08-19T05:29:21;13.77;;;12.47;;
14231;SDS011;7200;52.194;9.900;2022-08-19T05:31:48;14.40;;;13.10;;
14231;SDS011;7200;52.194;9.900;2022-08-19T05:34:17;13.67;;;12.33;;
14231;SDS011;7200;52.194;9.900;2022-08-19T05:36:46;14.13;;;12.67;;
14231;SDS011;7200;52.194;9.900;2022-08-19T05:39:13;14.07;;;12.87;;
14231;SDS011;7200;52.194;9.900;2022-08-19T05:41:43;13.00;;;11.90;;
14231;SDS011;7200;52.194;9.900;2022-08-19T05:44:10;13.60;;;12.23;;
14231;SDS011;7200;52.194;9.900;2022-08-19T05:46:36;13.30;;;12.00;;
14231;SDS011;7200;52.194;9.900;2022-08-19T05:49:06;13.43;;;12.10;;
14231;SDS011;7200;52.194;9.900;2022-08-19T05:51:33;12.40;;;11.40;;
14231;SDS011;7200;52.194;9.900;2022-08-19T05:54:01;11.87;;;10.77;;
14231;SDS011;7200;52.194;9.900;2022-08-19T05:56:27;12.90;;;11.60;;
14231;SDS011;7200;52.194;9.900;2022-08-19T05:58:56;13.33;;;12.03;;
14231;SDS011;7200;52.194;9.900;2022-08-19T06:01:23;12.43;;;11.30;;
14231;SDS011;7200;52.194;9.900;2022-08-19T06:03:50;12.90;;;11.70;;
14231;SDS011;7200;52.194;9.900;2022-08-19T06:06:16;13.70;;;12.33;;
14231;SDS011;7200;52.194;9.900;2022-08-19T06:08:41;14.10;;;12.90;;
14231;SDS011;7200;52.194;9.900;2022-08-19T06:11:31;13.53;;;11.70;;
14231;SDS011;7200;52.194;9.900;2022-08-19T06:14:04;13.50;;;12.37;;
14231;SDS011;7200;52.194;9.900;2022-08-19T06:16:33;13.60;;;12.27;;
14231;SDS011;7200;52.194;9.900;2022-08-19T06:19:00;12.80;;;11.80;;
14231;SDS011;7200;52.194;9.900;2022-08-19T06:21:27;14.43;;;13.03;;
14231;SDS011;7200;52.194;9.900;2022-08-19T06:23:55;14.10;;;13.00;;
14231;SDS011;7200;52.194;9.900;2022-08-19T06:26:21;16.30;;;13.00;;
14231;SDS011;7200;52.194;9.900;2022-08-19T06:28:48;14.27;;;12.80;;
14231;SDS011;7200;52.194;9.900;2022-08-19T06:31:15;14.67;;;13.17;;
14231;SDS011;7200;52.194;9.900;2022-08-19T06:33:47;16.13;;;14.23;;
14231;SDS011;7200;52.194;9.900;2022-08-19T06:36:55;17.20;;;14.30;;
14231;SDS011;7200;52.194;9.900;2022-08-19T06:39:11;15.43;;;13.93;;
14231;SDS011;7200;52.194;9.900;2022-08-19T06:41:39;16.53;;;14.57;;
14231;SDS011;7200;52.194;9.900;2022-08-19T06:44:06;16.57;;;15.07;;
14231;SDS011;7200;52.194;9.900;2022-08-19T06:46:32;15.50;;;14.20;;
14231;SDS011;7200;52.194;9.900;2022-08-19T06:48:58;17.40;;;15.63;;
14231;SDS011;7200;52.194;9.900;2022-08-19T06:51:24;16.70;;;14.97;;
14231;SDS011;7200;52.194;9.900;2022-08-19T06:53:51;18.47;;;16.53;;
14231;SDS011;7200;52.194;9.900;2022-08-19T06:56:21;18.53;;;16.73;;
14231;SDS011;7200;52.194;9.900;2022-08-19T06:58:50;17.67;;;15.90;;
14231;SDS011;7200;52.194;9.900;2022-08-19T07:01:18;18.60;;;16.73;;
14231;SDS011;7200;52.194;9.900;2022-08-19T07:03:44;20.40;;;18.10;;
14231;SDS011;7200;52.194;9.900;2022-08-19T07:06:13;17.87;;;14.33;;
14231;SDS011;7200;52.194;9.900;2022-08-19T07:08:42;17.27;;;15.60;;
14231;SDS011;7200;52.194;9.900;2022-08-19T07:11:13;20.07;;;18.07;;
14231;SDS011;7200;52.194;9.900;2022-08-19T07:13:40;19.87;;;17.60;;
14231;SDS011;7200;52.194;9.900;2022-08-19T07:16:09;21.30;;;18.87;;
14231;SDS011;7200;52.194;9.900;2022-08-19T07:18:37;22.77;;;18.10;;
14231;SDS011;7200;52.194;9.900;2022-08-19T07:21:04;19.20;;;17.10;;
14231;SDS011;7200;52.194;9.900;2022-08-19T07:23:31;21.80;;;17.97;;
14231;SDS011;7200;52.194;9.900;2022-08-19T07:25:57;19.60;;;17.17;;
14231;SDS011;7200;52.194;9.900;2022-08-19T07:28:23;20.77;;;18.53;;
14231;SDS011;7200;52.194;9.900;2022-08-19T07:30:49;18.97;;;16.00;;
14231;SDS011;7200;52.194;9.900;2022-08-19T07:33:15;17.97;;;16.17;;
14231;SDS011;7200;52.194;9.900;2022-08-19T07:35:41;19.07;;;16.17;;
14231;SDS011;7200;52.194;9.900;2022-08-19T07:38:06;18.47;;;16.47;;
14231;SDS011;7200;52.194;9.900;2022-08-19T07:40:32;16.73;;;15.13;;
14231;SDS011;7200;52.194;9.900;2022-08-19T07:42:57;18.23;;;16.27;;
14231;SDS011;7200;52.194;9.900;2022-08-19T07:45:22;19.23;;;17.33;;
14231;SDS011;7200;52.194;9.900;2022-08-19T07:47:48;19.53;;;17.27;;
14231;SDS011;7200;52.194;9.900;2022-08-19T07:50:14;19.07;;;17.20;;
14231;SDS011;7200;52.194;9.900;2022-08-19T07:52:40;20.60;;;17.37;;
14231;SDS011;7200;52.194;9.900;2022-08-19T07:55:09;18.57;;;16.33;;
14231;SDS011;7200;52.194;9.900;2022-08-19T07:57:35;18.53;;;16.57;;
14231;SDS011;7200;52.194;9.900;2022-08-19T08:00:02;16.90;;;15.43;;
14231;SDS011;7200;52.194;9.900;2022-08-19T08:02:29;16.77;;;15.47;;
14231;SDS011;7200;52.194;9.900;2022-08-19T08:04:54;19.03;;;16.80;;
14231;SDS011;7200;52.194;9.900;2022-08-19T08:07:38;16.80;;;15.20;;
14231;SDS011;7200;52.194;9.900;2022-08-19T08:10:22;15.97;;;14.43;;
14231;SDS011;7200;52.194;9.900;2022-08-19T08:12:47;18.13;;;16.40;;
14231;SDS011;7200;52.194;9.900;2022-08-19T08:15:15;17.43;;;15.90;;
14231;SDS011;7200;52.194;9.900;2022-08-19T08:17:41;15.87;;;14.57;;
14231;SDS011;7200;52.194;9.900;2022-08-19T08:20:08;15.13;;;13.70;;
14231;SDS011;7200;52.194;9.900;2022-08-19T08:22:34;14.13;;;12.83;;
14231;SDS011;7200;52.194;9.900;2022-08-19T08:25:22;15.70;;;14.20;;
14231;SDS011;7200;52.194;9.900;2022-08-19T08:27:49;15.40;;;13.93;;
14231;SDS011;7200;52.194;9.900;2022-08-19T08:30:21;13.50;;;12.20;;
14231;SDS011;7200;52.194;9.900;2022-08-19T08:32:53;14.13;;;12.90;;
14231;SDS011;7200;52.194;9.900;2022-08-19T08:35:20;14.37;;;13.03;;
14231;SDS011;7200;52.194;9.900;2022-08-19T08:37:49;13.30;;;12.20;;
14231;SDS011;7200;52.194;9.900;2022-08-19T08:43:37;11.70;;;10.60;;
14231;SDS011;7200;52.194;9.900;2022-08-19T08:46:18;13.30;;;12.10;;
14231;SDS011;7200;52.194;9.900;2022-08-19T08:51:29;11.93;;;10.93;;
14231;SDS011;7200;52.194;9.900;2022-08-19T08:53:59;11.10;;;10.10;;
14231;SDS011;7200;52.194;9.900;2022-08-19T08:56:26;12.53;;;11.07;;
14231;SDS011;7200;52.194;9.900;2022-08-19T08:58:58;10.77;;;9.90;;
14231;SDS011;7200;52.194;9.900;2022-08-19T09:01:32;10.90;;;10.00;;
14231;SDS011;7200;52.194;9.900;2022-08-19T09:03:57;11.03;;;10.00;;
14231;SDS011;7200;52.194;9.900;2022-08-19T09:09:05;9.93;;;9.03;;
14231;SDS011;7200;52.194;9.900;2022-08-19T09:14:53;9.80;;;8.97;;
14231;SDS011;7200;52.194;9.900;2022-08-19T09:17:29;9.43;;;8.40;;
14231;SDS011;7200;52.194;9.900;2022-08-19T09:19:57;8.57;;;7.87;;
14231;SDS011;7200;52.194;9.900;2022-08-19T09:22:32;9.90;;;9.03;;
14231;SDS011;7200;52.194;9.900;2022-08-19T09:24:57;9.47;;;8.67;;
14231;SDS011;7200;52.194;9.900;2022-08-19T09:27:24;9.70;;;8.80;;
14231;SDS011;7200;52.194;9.900;2022-08-19T09:29:51;8.53;;;7.83;;
14231;SDS011;7200;52.194;9.900;2022-08-19T09:32:17;8.20;;;7.57;;
14231;SDS011;7200;52.194;9.900;2022-08-19T09:34:43;7.50;;;6.80;;
14231;SDS011;7200;52.194;9.900;2022-08-19T09:37:09;7.93;;;7.23;;
14231;SDS011;7200;52.194;9.900;2022-08-19T09:39:34;8.37;;;7.63;;
14231;SDS011;7200;52.194;9.900;2022-08-19T09:42:00;7.50;;;6.93;;
14231;SDS011;7200;52.194;9.900;2022-08-19T09:44:25;6.63;;;6.07;;
14231;SDS011;7200;52.194;9.900;2022-08-19T09:46:50;7.33;;;6.60;;
14231;SDS011;7200;52.194;9.900;2022-08-19T09:49:17;7.23;;;6.63;;
14231;SDS011;7200;52.194;9.900;2022-08-19T09:51:45;6.53;;;5.93;;
14231;SDS011;7200;52.194;9.900;2022-08-19T09:54:14;6.30;;;5.70;;
14231;SDS011;7200;52.194;9.900;2022-08-19T09:56:39;6.60;;;6.10;;
14231;SDS011;7200;52.194;9.900;2022-08-19T09:59:04;5.23;;;4.83;;
14231;SDS011;7200;52.194;9.900;2022-08-19T10:01:30;7.13;;;6.53;;
14231;SDS011;7200;52.194;9.900;2022-08-19T10:03:58;7.33;;;6.70;;
14231;SDS011;7200;52.194;9.900;2022-08-19T10:06:25;7.10;;;6.40;;
14231;SDS011;7200;52.194;9.900;2022-08-19T10:08:55;6.47;;;5.87;;
14231;SDS011;7200;52.194;9.900;2022-08-19T10:11:20;7.83;;;7.23;;
14231;SDS011;7200;52.194;9.900;2022-08-19T10:13:46;6.30;;;5.87;;
14231;SDS011;7200;52.194;9.900;2022-08-19T10:16:14;6.03;;;5.50;;
14231;SDS011;7200;52.194;9.900;2022-08-19T10:18:41;6.63;;;5.83;;
14231;SDS011;7200;52.194;9.900;2022-08-19T10:21:11;6.07;;;5.50;;
14231;SDS011;7200;52.194;9.900;2022-08-19T10:23:40;6.30;;;5.80;;
14231;SDS011;7200;52.194;9.900;2022-08-19T10:26:12;5.93;;;5.40;;
14231;SDS011;7200;52.194;9.900;2022-08-19T10:28:39;5.37;;;4.97;;
14231;SDS011;7200;52.194;9.900;2022-08-19T10:31:09;5.37;;;4.87;;
14231;SDS011;7200;52.194;9.900;2022-08-19T10:33:36;3.07;;;2.77;;
14231;SDS011;7200;52.194;9.900;2022-08-19T10:36:07;4.77;;;3.90;;
14231;SDS011;7200;52.194;9.900;2022-08-19T10:38:40;3.77;;;3.40;;
14231;SDS011;7200;52.194;9.900;2022-08-19T10:41:07;4.13;;;3.50;;
14231;SDS011;7200;52.194;9.900;2022-08-19T10:43:34;3.83;;;3.60;;
14231;SDS011;7200;52.194;9.900;2022-08-19T10:46:03;4.03;;;3.70;;
14231;SDS011;7200;52.194;9.900;2022-08-19T10:48:30;3.67;;;3.37;;
14231;SDS011;7200;52.194;9.900;2022-08-19T10:50:56;3.47;;;2.97;;
14231;SDS011;7200;52.194;9.900;2022-08-19T10:53:41;1.77;;;1.67;;
14231;SDS011;7200;52.194;9.900;2022-08-19T10:56:06;2.03;;;1.70;;
14231;SDS011;7200;52.194;9.900;2022-08-19T10:58:50;2.43;;;2.23;;
14231;SDS011;7200;52.194;9.900;2022-08-19T11:01:15;2.33;;;1.97;;
14231;SDS011;7200;52.194;9.900;2022-08-19T11:03:41;1.90;;;1.80;;
14231;SDS011;7200;52.194;9.900;2022-08-19T11:06:07;1.40;;;1.30;;
14231;SDS011;7200;52.194;9.900;2022-08-19T11:08:34;2.13;;;1.47;;
14231;SDS011;7200;52.194;9.900;2022-08-19T11:11:02;2.00;;;1.80;;
14231;SDS011;7200;52.194;9.900;2022-08-19T11:13:29;1.77;;;1.67;;
14231;SDS011;7200;52.194;9.900;2022-08-19T11:16:08;2.00;;;1.90;;
14231;SDS011;7200;52.194;9.900;2022-08-19T11:18:37;2.10;;;1.60;;
14231;SDS011;7200;52.194;9.900;2022-08-19T11:21:23;2.30;;;1.53;;
14231;SDS011;7200;52.194;9.900;2022-08-19T11:23:51;1.87;;;1.40;;
14231;SDS011;7200;52.194;9.900;2022-08-19T11:26:19;2.27;;;1.40;;
14231;SDS011;7200;52.194;9.900;2022-08-19T11:28:46;1.97;;;1.20;;
14231;SDS011;7200;52.194;9.900;2022-08-19T11:31:13;1.93;;;1.33;;
14231;SDS011;7200;52.194;9.900;2022-08-19T11:33:39;1.30;;;1.20;;
14231;SDS011;7200;52.194;9.900;2022-08-19T11:36:06;1.40;;;1.10;;
14231;SDS011;7200;52.194;9.900;2022-08-19T11:38:32;1.27;;;1.17;;
14231;SDS011;7200;52.194;9.900;2022-08-19T11:40:59;2.13;;;1.83;;
14231;SDS011;7200;52.194;9.900;2022-08-19T11:43:31;1.87;;;1.70;;
14231;SDS011;7200;52.194;9.900;2022-08-19T11:45:57;2.27;;;1.40;;
14231;SDS011;7200;52.194;9.900;2022-08-19T11:48:23;1.70;;;1.60;;
14231;SDS011;7200;52.194;9.900;2022-08-19T11:50:50;1.93;;;1.30;;
14231;SDS011;7200;52.194;9.900;2022-08-19T11:53:17;1.30;;;1.30;;
14231;SDS011;7200;52.194;9.900;2022-08-19T11:55:45;1.30;;;1.20;;
14231;SDS011;7200;52.194;9.900;2022-08-19T11:58:17;3.40;;;1.57;;
14231;SDS011;7200;52.194;9.900;2022-08-19T12:00:43;2.83;;;1.50;;
14231;SDS011;7200;52.194;9.900;2022-08-19T12:03:10;2.65;;;1.48;;
14231;SDS011;7200;52.194;9.900;2022-08-19T12:05:37;1.40;;;1.30;;
14231;SDS011;7200;52.194;9.900;2022-08-19T12:08:04;2.22;;;1.73;;
14231;SDS011;7200;52.194;9.900;2022-08-19T12:10:30;2.57;;;1.53;;
14231;SDS011;7200;52.194;9.900;2022-08-19T12:12:57;1.43;;;1.30;;
14231;SDS011;7200;52.194;9.900;2022-08-19T12:15:22;1.55;;;1.40;;
14231;SDS011;7200;52.194;9.900;2022-08-19T12:17:48;1.33;;;1.23;;
14231;SDS011;7200;52.194;9.900;2022-08-19T12:20:13;1.90;;;1.50;;
14231;SDS011;7200;52.194;9.900;2022-08-19T12:22:40;1.60;;;1.50;;
14231;SDS011;7200;52.194;9.900;2022-08-19T12:25:08;1.58;;;1.48;;
14231;SDS011;7200;52.194;9.900;2022-08-19T12:27:36;1.73;;;1.63;;
14231;SDS011;7200;52.194;9.900;2022-08-19T12:30:03;1.23;;;1.13;;
14231;SDS011;7200;52.194;9.900;2022-08-19T12:32:29;1.90;;;1.13;;
14231;SDS011;7200;52.194;9.900;2022-08-19T12:34:55;1.17;;;1.13;;
14231;SDS011;7200;52.194;9.900;2022-08-19T12:37:20;0.90;;;0.90;;
14231;SDS011;7200;52.194;9.900;2022-08-19T12:39:46;4.82;;;1.33;;
14231;SDS011;7200;52.194;9.900;2022-08-19T12:42:11;1.17;;;1.10;;
14231;SDS011;7200;52.194;9.900;2022-08-19T12:44:38;1.17;;;1.10;;
14231;SDS011;7200;52.194;9.900;2022-08-19T12:47:05;1.13;;;1.00;;
14231;SDS011;7200;52.194;9.900;2022-08-19T12:49:33;1.23;;;1.13;;
14231;SDS011;7200;52.194;9.900;2022-08-19T12:51:59;1.38;;;1.23;;
14231;SDS011;7200;52.194;9.900;2022-08-19T12:54:25;2.00;;;1.30;;
14231;SDS011;7200;52.194;9.900;2022-08-19T12:56:51;1.25;;;1.15;;
14231;SDS011;7200;52.194;9.900;2022-08-19T12:59:17;1.38;;;1.27;;
14231;SDS011;7200;52.194;9.900;2022-08-19T13:01:44;1.25;;;1.10;;
14231;SDS011;7200;52.194;9.900;2022-08-19T13:04:09;0.90;;;0.90;;
14231;SDS011;7200;52.194;9.900;2022-08-19T13:06:35;1.95;;;1.05;;
14231;SDS011;7200;52.194;9.900;2022-08-19T13:09:01;1.60;;;1.30;;
14231;SDS011;7200;52.194;9.900;2022-08-19T13:11:26;1.10;;;1.10;;
14231;SDS011;7200;52.194;9.900;2022-08-19T13:13:52;1.08;;;1.00;;
14231;SDS011;7200;52.194;9.900;2022-08-19T13:16:19;1.33;;;1.23;;
14231;SDS011;7200;52.194;9.900;2022-08-19T13:18:46;1.73;;;1.63;;
14231;SDS011;7200;52.194;9.900;2022-08-19T13:21:12;1.48;;;1.30;;
14231;SDS011;7200;52.194;9.900;2022-08-19T13:23:38;1.30;;;1.20;;
14231;SDS011;7200;52.194;9.900;2022-08-19T13:26:04;1.25;;;1.15;;
14231;SDS011;7200;52.194;9.900;2022-08-19T13:28:31;1.40;;;1.10;;
14231;SDS011;7200;52.194;9.900;2022-08-19T13:31:16;2.50;;;1.42;;
14231;SDS011;7200;52.194;9.900;2022-08-19T13:34:01;1.55;;;1.10;;
14231;SDS011;7200;52.194;9.900;2022-08-19T13:36:26;2.45;;;1.30;;
14231;SDS011;7200;52.194;9.900;2022-08-19T13:38:52;1.10;;;1.00;;
14231;SDS011;7200;52.194;9.900;2022-08-19T13:41:17;1.00;;;1.00;;
14231;SDS011;7200;52.194;9.900;2022-08-19T13:43:44;0.98;;;0.90;;
14231;SDS011;7200;52.194;9.900;2022-08-19T13:46:10;0.95;;;0.88;;
14231;SDS011;7200;52.194;9.900;2022-08-19T13:48:38;5.43;;;1.20;;
14231;SDS011;7200;52.194;9.900;2022-08-19T13:51:06;1.17;;;1.08;;
14231;SDS011;7200;52.194;9.900;2022-08-19T13:53:35;0.80;;;0.80;;
14231;SDS011;7200;52.194;9.900;2022-08-19T13:56:07;1.02;;;0.93;;
14231;SDS011;7200;52.194;9.900;2022-08-19T13:58:34;1.67;;;1.10;;
14231;SDS011;7200;52.194;9.900;2022-08-19T14:01:00;1.10;;;1.00;;
14231;SDS011;7200;52.194;9.900;2022-08-19T14:03:26;1.23;;;1.10;;
14231;SDS011;7200;52.194;9.900;2022-08-19T14:05:52;1.27;;;1.10;;
14231;SDS011;7200;52.194;9.900;2022-08-19T14:08:18;1.25;;;1.08;;
14231;SDS011;7200;52.194;9.900;2022-08-19T14:10:44;1.50;;;0.95;;
14231;SDS011;7200;52.194;9.900;2022-08-19T14:13:12;1.08;;;0.98;;
14231;SDS011;7200;52.194;9.900;2022-08-19T14:15:39;2.15;;;1.30;;
14231;SDS011;7200;52.194;9.900;2022-08-19T14:18:05;1.98;;;1.17;;
14231;SDS011;7200;52.194;9.900;2022-08-19T14:20:30;1.27;;;0.93;;
14231;SDS011;7200;52.194;9.900;2022-08-19T14:22:59;1.50;;;0.93;;
14231;SDS011;7200;52.194;9.900;2022-08-19T14:25:27;1.00;;;0.80;;
14231;SDS011;7200;52.194;9.900;2022-08-19T14:27:53;5.38;;;1.05;;
14231;SDS011;7200;52.194;9.900;2022-08-19T14:30:22;2.97;;;1.15;;
14231;SDS011;7200;52.194;9.900;2022-08-19T14:32:51;1.00;;;0.90;;
14231;SDS011;7200;52.194;9.900;2022-08-19T14:35:17;0.85;;;0.85;;
14231;SDS011;7200;52.194;9.900;2022-08-19T14:37:44;1.65;;;1.10;;
14231;SDS011;7200;52.194;9.900;2022-08-19T14:40:10;1.70;;;1.13;;
14231;SDS011;7200;52.194;9.900;2022-08-19T14:42:37;1.15;;;1.05;;
14231;SDS011;7200;52.194;9.900;2022-08-19T14:45:03;1.02;;;1.00;;
14231;SDS011;7200;52.194;9.900;2022-08-19T14:47:30;1.33;;;1.10;;
14231;SDS011;7200;52.194;9.900;2022-08-19T14:49:56;1.20;;;1.08;;
14231;SDS011;7200;52.194;9.900;2022-08-19T14:52:21;1.40;;;1.20;;
14231;SDS011;7200;52.194;9.900;2022-08-19T14:54:46;1.70;;;1.02;;
14231;SDS011;7200;52.194;9.900;2022-08-19T14:57:12;1.90;;;1.13;;
14231;SDS011;7200;52.194;9.900;2022-08-19T14:59:40;1.30;;;1.13;;
14231;SDS011;7200;52.194;9.900;2022-08-19T15:02:08;1.70;;;0.82;;